13/05/05 - 13h:02mDenunciar

McDonnell Douglas F-18C Hornet

METAR SBPB 131600Z 08014KT 9999 BKN020 BKN080 29/27 Q1010=

Comentários (1)

nanajatoba
1. nanajatoba 13/05/05 22:19

Há momentos na vida em que se deveria calar e deixar que o
silêncio falasse ao coração, pois há sentimentos que a linguagem
não expressa e há emoções que
as palavras não sabem traduzir.
Assim é a vida
A vida é uma peça de teatro
que não permite ensaios.
Por isso cante, chore, brinque e viva cada momento intensamente,
antes que as cortinas
se fechem e a peça termine
sem aplausos.
TENHA UM ÓTIMO FIM D SEMANA
Beijos...*Jana*

Fotos postadas a mais de 15 dias não podem receber comentários.